sensor_id;sensor_type;location;lat;lon;timestamp;temperature;humidity
15013;DHT22;7603;49.432;11.418;2022-12-07T00:01:38;2.80;99.90
15013;DHT22;7603;49.432;11.418;2022-12-07T00:04:06;2.60;99.90
15013;DHT22;7603;49.432;11.418;2022-12-07T00:06:37;2.60;99.90
15013;DHT22;7603;49.432;11.418;2022-12-07T00:09:05;2.60;99.90
15013;DHT22;7603;49.432;11.418;2022-12-07T00:11:31;2.60;99.90
15013;DHT22;7603;49.432;11.418;2022-12-07T00:13:59;2.60;99.90
15013;DHT22;7603;49.432;11.418;2022-12-07T00:16:28;2.70;99.90
15013;DHT22;7603;49.432;11.418;2022-12-07T00:18:54;2.60;99.90
15013;DHT22;7603;49.432;11.418;2022-12-07T00:21:25;2.60;99.90
15013;DHT22;7603;49.432;11.418;2022-12-07T00:23:53;2.60;99.90
15013;DHT22;7603;49.432;11.418;2022-12-07T00:26:21;2.60;99.90
15013;DHT22;7603;49.432;11.418;2022-12-07T00:28:53;2.60;99.90
15013;DHT22;7603;49.432;11.418;2022-12-07T00:31:21;2.70;99.90
15013;DHT22;7603;49.432;11.418;2022-12-07T00:33:48;2.70;99.90
15013;DHT22;7603;49.432;11.418;2022-12-07T00:36:17;2.60;99.90
15013;DHT22;7603;49.432;11.418;2022-12-07T00:38:43;2.60;99.90
15013;DHT22;7603;49.432;11.418;2022-12-07T00:41:19;2.60;99.90
15013;DHT22;7603;49.432;11.418;2022-12-07T00:43:45;2.60;99.90
15013;DHT22;7603;49.432;11.418;2022-12-07T00:46:12;2.60;99.90
15013;DHT22;7603;49.432;11.418;2022-12-07T00:48:39;2.60;99.90
15013;DHT22;7603;49.432;11.418;2022-12-07T00:51:05;2.60;99.90
15013;DHT22;7603;49.432;11.418;2022-12-07T00:53:33;2.60;99.90
15013;DHT22;7603;49.432;11.418;2022-12-07T00:56:07;2.60;99.90
15013;DHT22;7603;49.432;11.418;2022-12-07T00:58:34;2.70;99.90
15013;DHT22;7603;49.432;11.418;2022-12-07T01:01:01;2.60;99.90
15013;DHT22;7603;49.432;11.418;2022-12-07T01:03:27;2.60;99.90
15013;DHT22;7603;49.432;11.418;2022-12-07T01:05:54;2.60;99.90
15013;DHT22;7603;49.432;11.418;2022-12-07T01:08:21;2.60;99.90
15013;DHT22;7603;49.432;11.418;2022-12-07T01:10:47;2.70;99.90
15013;DHT22;7603;49.432;11.418;2022-12-07T01:13:13;2.70;99.90
15013;DHT22;7603;49.432;11.418;2022-12-07T01:15:43;2.60;99.90
15013;DHT22;7603;49.432;11.418;2022-12-07T01:18:10;2.70;99.90
15013;DHT22;7603;49.432;11.418;2022-12-07T01:20:36;2.70;99.90
15013;DHT22;7603;49.432;11.418;2022-12-07T01:23:02;2.70;99.90
15013;DHT22;7603;49.432;11.418;2022-12-07T01:25:28;2.70;99.90
15013;DHT22;7603;49.432;11.418;2022-12-07T01:27:53;2.70;99.90
15013;DHT22;7603;49.432;11.418;2022-12-07T01:30:19;2.60;99.90
15013;DHT22;7603;49.432;11.418;2022-12-07T01:32:44;2.60;99.90
15013;DHT22;7603;49.432;11.418;2022-12-07T01:35:10;2.60;99.90
15013;DHT22;7603;49.432;11.418;2022-12-07T01:37:37;2.60;99.90
15013;DHT22;7603;49.432;11.418;2022-12-07T01:40:05;2.70;99.90
15013;DHT22;7603;49.432;11.418;2022-12-07T01:42:31;2.60;99.90
15013;DHT22;7603;49.432;11.418;2022-12-07T01:47:52;2.70;99.90
15013;DHT22;7603;49.432;11.418;2022-12-07T01:50:19;2.70;99.90
15013;DHT22;7603;49.432;11.418;2022-12-07T01:52:46;2.70;99.90
15013;DHT22;7603;49.432;11.418;2022-12-07T01:55:14;2.80;99.90
15013;DHT22;7603;49.432;11.418;2022-12-07T01:57:46;2.80;99.90
15013;DHT22;7603;49.432;11.418;2022-12-07T02:00:13;2.80;99.90
15013;DHT22;7603;49.432;11.418;2022-12-07T02:03:00;2.80;99.90
15013;DHT22;7603;49.432;11.418;2022-12-07T02:05:29;2.80;99.90
15013;DHT22;7603;49.432;11.418;2022-12-07T02:07:56;2.70;99.90
15013;DHT22;7603;49.432;11.418;2022-12-07T02:10:28;2.80;99.90
15013;DHT22;7603;49.432;11.418;2022-12-07T02:12:58;2.70;99.90
15013;DHT22;7603;49.432;11.418;2022-12-07T02:15:33;2.70;99.90
15013;DHT22;7603;49.432;11.418;2022-12-07T02:18:27;2.60;99.90
15013;DHT22;7603;49.432;11.418;2022-12-07T02:21:20;2.60;99.90
15013;DHT22;7603;49.432;11.418;2022-12-07T02:29:29;2.60;99.90
15013;DHT22;7603;49.432;11.418;2022-12-07T02:32:09;2.60;99.90
15013;DHT22;7603;49.432;11.418;2022-12-07T02:34:44;2.50;99.90
15013;DHT22;7603;49.432;11.418;2022-12-07T02:37:51;2.50;99.90
15013;DHT22;7603;49.432;11.418;2022-12-07T02:40:23;2.50;99.90
15013;DHT22;7603;49.432;11.418;2022-12-07T02:42:55;2.50;99.90
15013;DHT22;7603;49.432;11.418;2022-12-07T02:45:25;2.40;99.90
15013;DHT22;7603;49.432;11.418;2022-12-07T02:47:56;2.40;99.90
15013;DHT22;7603;49.432;11.418;2022-12-07T02:50:24;2.50;99.90
15013;DHT22;7603;49.432;11.418;2022-12-07T02:52:50;2.50;99.90
15013;DHT22;7603;49.432;11.418;2022-12-07T02:55:18;2.50;99.90
15013;DHT22;7603;49.432;11.418;2022-12-07T02:58:23;2.50;99.90
15013;DHT22;7603;49.432;11.418;2022-12-07T03:07:00;2.50;99.90
15013;DHT22;7603;49.432;11.418;2022-12-07T03:09:37;2.50;99.90
15013;DHT22;7603;49.432;11.418;2022-12-07T03:12:10;2.70;99.90
15013;DHT22;7603;49.432;11.418;2022-12-07T03:14:49;2.50;99.90
15013;DHT22;7603;49.432;11.418;2022-12-07T03:17:22;2.60;99.90
15013;DHT22;7603;49.432;11.418;2022-12-07T03:19:51;2.50;99.90
15013;DHT22;7603;49.432;11.418;2022-12-07T03:22:19;2.50;99.90
15013;DHT22;7603;49.432;11.418;2022-12-07T03:24:49;2.50;99.90
15013;DHT22;7603;49.432;11.418;2022-12-07T03:27:34;2.50;99.90
15013;DHT22;7603;49.432;11.418;2022-12-07T03:30:05;2.50;99.90
15013;DHT22;7603;49.432;11.418;2022-12-07T03:35:18;2.50;99.90
15013;DHT22;7603;49.432;11.418;2022-12-07T03:40:35;2.50;99.90
15013;DHT22;7603;49.432;11.418;2022-12-07T03:43:03;2.50;99.90
15013;DHT22;7603;49.432;11.418;2022-12-07T03:51:18;2.30;99.90
15013;DHT22;7603;49.432;11.418;2022-12-07T03:54:09;2.30;99.90
15013;DHT22;7603;49.432;11.418;2022-12-07T03:56:36;2.20;99.90
15013;DHT22;7603;49.432;11.418;2022-12-07T03:59:02;2.10;99.90
15013;DHT22;7603;49.432;11.418;2022-12-07T04:01:28;1.90;99.90
15013;DHT22;7603;49.432;11.418;2022-12-07T04:03:54;1.90;99.90
15013;DHT22;7603;49.432;11.418;2022-12-07T04:06:19;1.60;99.90
15013;DHT22;7603;49.432;11.418;2022-12-07T04:08:45;1.50;99.90
15013;DHT22;7603;49.432;11.418;2022-12-07T04:11:11;1.30;99.90
15013;DHT22;7603;49.432;11.418;2022-12-07T04:13:36;1.20;99.90
15013;DHT22;7603;49.432;11.418;2022-12-07T04:16:22;1.20;99.90
15013;DHT22;7603;49.432;11.418;2022-12-07T04:18:47;1.10;99.90
15013;DHT22;7603;49.432;11.418;2022-12-07T04:21:13;1.10;99.90
15013;DHT22;7603;49.432;11.418;2022-12-07T04:23:39;1.10;99.90
15013;DHT22;7603;49.432;11.418;2022-12-07T04:26:04;1.10;99.90
15013;DHT22;7603;49.432;11.418;2022-12-07T04:28:30;1.10;99.90
15013;DHT22;7603;49.432;11.418;2022-12-07T04:30:56;1.10;99.90
15013;DHT22;7603;49.432;11.418;2022-12-07T04:33:21;1.10;99.90
15013;DHT22;7603;49.432;11.418;2022-12-07T04:35:47;1.10;99.90
15013;DHT22;7603;49.432;11.418;2022-12-07T04:38:12;1.20;99.90
15013;DHT22;7603;49.432;11.418;2022-12-07T04:40:38;1.20;99.90
15013;DHT22;7603;49.432;11.418;2022-12-07T04:43:04;1.30;99.90
15013;DHT22;7603;49.432;11.418;2022-12-07T04:45:30;1.30;99.90
15013;DHT22;7603;49.432;11.418;2022-12-07T04:47:56;1.30;99.90
15013;DHT22;7603;49.432;11.418;2022-12-07T04:50:21;1.30;99.90
15013;DHT22;7603;49.432;11.418;2022-12-07T04:52:47;1.30;99.90
15013;DHT22;7603;49.432;11.418;2022-12-07T04:55:13;1.30;99.90
15013;DHT22;7603;49.432;11.418;2022-12-07T04:57:38;1.30;99.90
15013;DHT22;7603;49.432;11.418;2022-12-07T05:00:05;1.30;99.90
15013;DHT22;7603;49.432;11.418;2022-12-07T05:02:30;1.40;99.90
15013;DHT22;7603;49.432;11.418;2022-12-07T05:04:56;1.40;99.90
15013;DHT22;7603;49.432;11.418;2022-12-07T05:07:22;1.40;99.90
15013;DHT22;7603;49.432;11.418;2022-12-07T05:09:47;1.40;99.90
15013;DHT22;7603;49.432;11.418;2022-12-07T05:12:13;1.40;99.90
15013;DHT22;7603;49.432;11.418;2022-12-07T05:14:38;1.50;99.90
15013;DHT22;7603;49.432;11.418;2022-12-07T05:17:04;1.50;99.90
15013;DHT22;7603;49.432;11.418;2022-12-07T05:19:30;1.70;99.90
15013;DHT22;7603;49.432;11.418;2022-12-07T05:21:55;1.80;99.90
15013;DHT22;7603;49.432;11.418;2022-12-07T05:24:21;1.80;99.90
15013;DHT22;7603;49.432;11.418;2022-12-07T05:26:47;1.90;99.90
15013;DHT22;7603;49.432;11.418;2022-12-07T05:29:15;2.00;99.90
15013;DHT22;7603;49.432;11.418;2022-12-07T05:31:41;2.10;99.90
15013;DHT22;7603;49.432;11.418;2022-12-07T05:34:07;1.90;99.90
15013;DHT22;7603;49.432;11.418;2022-12-07T05:36:33;1.90;99.90
15013;DHT22;7603;49.432;11.418;2022-12-07T05:38:59;1.90;99.90
15013;DHT22;7603;49.432;11.418;2022-12-07T05:41:25;1.90;99.90
15013;DHT22;7603;49.432;11.418;2022-12-07T05:44:09;1.90;99.90
15013;DHT22;7603;49.432;11.418;2022-12-07T05:46:35;1.80;99.90
15013;DHT22;7603;49.432;11.418;2022-12-07T05:49:01;2.00;99.90
15013;DHT22;7603;49.432;11.418;2022-12-07T05:51:26;1.90;99.90
15013;DHT22;7603;49.432;11.418;2022-12-07T05:53:52;1.90;99.90
15013;DHT22;7603;49.432;11.418;2022-12-07T05:56:18;1.90;99.90
15013;DHT22;7603;49.432;11.418;2022-12-07T05:58:44;1.90;99.90
15013;DHT22;7603;49.432;11.418;2022-12-07T06:01:29;1.90;99.90
15013;DHT22;7603;49.432;11.418;2022-12-07T06:03:55;1.90;99.90
15013;DHT22;7603;49.432;11.418;2022-12-07T06:06:21;1.90;99.90
15013;DHT22;7603;49.432;11.418;2022-12-07T06:08:46;1.80;99.90
15013;DHT22;7603;49.432;11.418;2022-12-07T06:11:12;1.90;99.90
15013;DHT22;7603;49.432;11.418;2022-12-07T06:13:56;1.80;99.90
15013;DHT22;7603;49.432;11.418;2022-12-07T06:16:22;1.80;99.90
15013;DHT22;7603;49.432;11.418;2022-12-07T06:18:48;1.80;99.90
15013;DHT22;7603;49.432;11.418;2022-12-07T06:21:13;1.90;99.90
15013;DHT22;7603;49.432;11.418;2022-12-07T06:23:39;1.80;99.90
15013;DHT22;7603;49.432;11.418;2022-12-07T06:26:05;1.80;99.90
15013;DHT22;7603;49.432;11.418;2022-12-07T06:28:31;1.80;99.90
15013;DHT22;7603;49.432;11.418;2022-12-07T06:31:00;1.80;99.90
15013;DHT22;7603;49.432;11.418;2022-12-07T06:33:27;1.80;99.90
15013;DHT22;7603;49.432;11.418;2022-12-07T06:35:53;1.80;99.90
15013;DHT22;7603;49.432;11.418;2022-12-07T06:38:19;1.80;99.90
15013;DHT22;7603;49.432;11.418;2022-12-07T06:40:44;1.70;99.90
15013;DHT22;7603;49.432;11.418;2022-12-07T06:43:10;1.80;99.90
15013;DHT22;7603;49.432;11.418;2022-12-07T06:45:35;1.80;99.90
15013;DHT22;7603;49.432;11.418;2022-12-07T06:48:01;1.80;99.90
15013;DHT22;7603;49.432;11.418;2022-12-07T06:50:27;1.80;99.90
15013;DHT22;7603;49.432;11.418;2022-12-07T06:52:53;1.90;99.90
15013;DHT22;7603;49.432;11.418;2022-12-07T06:55:18;1.90;99.90
15013;DHT22;7603;49.432;11.418;2022-12-07T06:57:44;1.90;99.90
15013;DHT22;7603;49.432;11.418;2022-12-07T07:00:10;1.90;99.90
15013;DHT22;7603;49.432;11.418;2022-12-07T07:02:36;1.90;99.90
15013;DHT22;7603;49.432;11.418;2022-12-07T07:05:02;1.90;99.90
15013;DHT22;7603;49.432;11.418;2022-12-07T07:07:28;1.90;99.90
15013;DHT22;7603;49.432;11.418;2022-12-07T07:09:54;2.00;99.90
15013;DHT22;7603;49.432;11.418;2022-12-07T07:12:19;2.00;99.90
15013;DHT22;7603;49.432;11.418;2022-12-07T07:14:45;1.90;99.90
15013;DHT22;7603;49.432;11.418;2022-12-07T07:17:10;1.90;99.90
15013;DHT22;7603;49.432;11.418;2022-12-07T07:19:36;1.90;99.90
15013;DHT22;7603;49.432;11.418;2022-12-07T07:22:03;1.80;99.90
15013;DHT22;7603;49.432;11.418;2022-12-07T07:24:28;1.90;99.90
15013;DHT22;7603;49.432;11.418;2022-12-07T07:26:54;1.90;99.90
15013;DHT22;7603;49.432;11.418;2022-12-07T07:29:20;1.90;99.90
15013;DHT22;7603;49.432;11.418;2022-12-07T07:31:45;2.00;99.90
15013;DHT22;7603;49.432;11.418;2022-12-07T07:34:11;2.00;99.90
15013;DHT22;7603;49.432;11.418;2022-12-07T07:36:36;1.90;99.90
15013;DHT22;7603;49.432;11.418;2022-12-07T07:39:03;2.00;99.90
15013;DHT22;7603;49.432;11.418;2022-12-07T07:41:28;2.00;99.90
15013;DHT22;7603;49.432;11.418;2022-12-07T07:43:54;1.90;99.90
15013;DHT22;7603;49.432;11.418;2022-12-07T07:46:19;2.00;99.90
15013;DHT22;7603;49.432;11.418;2022-12-07T07:48:45;2.00;99.90
15013;DHT22;7603;49.432;11.418;2022-12-07T07:51:11;2.00;99.90
15013;DHT22;7603;49.432;11.418;2022-12-07T07:53:36;2.00;99.90
15013;DHT22;7603;49.432;11.418;2022-12-07T07:56:02;2.10;99.90
15013;DHT22;7603;49.432;11.418;2022-12-07T07:58:28;2.10;99.90
15013;DHT22;7603;49.432;11.418;2022-12-07T08:00:54;2.10;99.90
15013;DHT22;7603;49.432;11.418;2022-12-07T08:03:20;2.20;99.90
15013;DHT22;7603;49.432;11.418;2022-12-07T08:05:46;2.20;99.90
15013;DHT22;7603;49.432;11.418;2022-12-07T08:08:11;2.20;99.90
15013;DHT22;7603;49.432;11.418;2022-12-07T08:10:37;2.30;99.90
15013;DHT22;7603;49.432;11.418;2022-12-07T08:13:03;2.30;99.90
15013;DHT22;7603;49.432;11.418;2022-12-07T08:15:40;2.30;99.90
15013;DHT22;7603;49.432;11.418;2022-12-07T08:18:07;2.30;99.90
15013;DHT22;7603;49.432;11.418;2022-12-07T08:20:34;2.40;99.90
15013;DHT22;7603;49.432;11.418;2022-12-07T08:23:00;2.40;99.90
15013;DHT22;7603;49.432;11.418;2022-12-07T08:25:27;2.50;99.90
15013;DHT22;7603;49.432;11.418;2022-12-07T08:27:53;2.50;99.90
15013;DHT22;7603;49.432;11.418;2022-12-07T08:30:19;2.50;99.90
15013;DHT22;7603;49.432;11.418;2022-12-07T08:32:45;2.50;99.90
15013;DHT22;7603;49.432;11.418;2022-12-07T08:35:12;2.50;99.90
15013;DHT22;7603;49.432;11.418;2022-12-07T08:37:38;2.50;99.90
15013;DHT22;7603;49.432;11.418;2022-12-07T08:40:05;2.60;99.90
15013;DHT22;7603;49.432;11.418;2022-12-07T08:42:31;2.60;99.90
15013;DHT22;7603;49.432;11.418;2022-12-07T08:45:08;2.60;99.90
15013;DHT22;7603;49.432;11.418;2022-12-07T08:47:37;2.60;99.90
15013;DHT22;7603;49.432;11.418;2022-12-07T08:50:04;2.60;99.90
15013;DHT22;7603;49.432;11.418;2022-12-07T08:52:31;2.60;99.90
15013;DHT22;7603;49.432;11.418;2022-12-07T08:54:58;2.60;99.90
15013;DHT22;7603;49.432;11.418;2022-12-07T08:57:25;2.70;99.90
15013;DHT22;7603;49.432;11.418;2022-12-07T08:59:54;2.70;99.90
15013;DHT22;7603;49.432;11.418;2022-12-07T09:02:20;2.70;99.90
15013;DHT22;7603;49.432;11.418;2022-12-07T09:04:46;2.70;99.90
15013;DHT22;7603;49.432;11.418;2022-12-07T09:07:11;2.60;99.90
15013;DHT22;7603;49.432;11.418;2022-12-07T09:09:37;2.70;99.90
15013;DHT22;7603;49.432;11.418;2022-12-07T09:12:03;2.70;99.90
15013;DHT22;7603;49.432;11.418;2022-12-07T09:14:29;2.70;99.90
15013;DHT22;7603;49.432;11.418;2022-12-07T09:16:55;2.70;99.90
15013;DHT22;7603;49.432;11.418;2022-12-07T09:19:20;2.70;99.90
15013;DHT22;7603;49.432;11.418;2022-12-07T09:21:46;2.70;99.90
15013;DHT22;7603;49.432;11.418;2022-12-07T09:24:15;2.70;99.90
15013;DHT22;7603;49.432;11.418;2022-12-07T09:26:40;2.70;99.90
15013;DHT22;7603;49.432;11.418;2022-12-07T09:29:06;2.70;99.90
15013;DHT22;7603;49.432;11.418;2022-12-07T09:31:32;2.70;99.90
15013;DHT22;7603;49.432;11.418;2022-12-07T09:33:59;2.60;99.90
15013;DHT22;7603;49.432;11.418;2022-12-07T09:36:25;2.70;99.90
15013;DHT22;7603;49.432;11.418;2022-12-07T09:38:52;2.70;99.90
15013;DHT22;7603;49.432;11.418;2022-12-07T09:41:18;2.70;99.90
15013;DHT22;7603;49.432;11.418;2022-12-07T09:43:44;2.70;99.90
15013;DHT22;7603;49.432;11.418;2022-12-07T09:46:15;2.70;99.90
15013;DHT22;7603;49.432;11.418;2022-12-07T09:48:42;2.70;99.90
15013;DHT22;7603;49.432;11.418;2022-12-07T09:51:18;2.60;99.90
15013;DHT22;7603;49.432;11.418;2022-12-07T09:53:45;2.60;99.90
15013;DHT22;7603;49.432;11.418;2022-12-07T09:56:13;2.60;99.90
15013;DHT22;7603;49.432;11.418;2022-12-07T09:58:40;2.60;99.90
15013;DHT22;7603;49.432;11.418;2022-12-07T10:01:11;2.70;99.90
15013;DHT22;7603;49.432;11.418;2022-12-07T10:03:40;2.70;99.90
15013;DHT22;7603;49.432;11.418;2022-12-07T10:06:06;2.80;99.90
15013;DHT22;7603;49.432;11.418;2022-12-07T10:08:33;2.80;99.90
15013;DHT22;7603;49.432;11.418;2022-12-07T10:11:01;2.80;99.90
15013;DHT22;7603;49.432;11.418;2022-12-07T10:13:42;2.70;99.90
15013;DHT22;7603;49.432;11.418;2022-12-07T10:16:32;2.90;99.90
15013;DHT22;7603;49.432;11.418;2022-12-07T10:19:19;2.90;99.90
15013;DHT22;7603;49.432;11.418;2022-12-07T10:24:30;2.90;99.90
15013;DHT22;7603;49.432;11.418;2022-12-07T10:26:56;3.00;99.90
15013;DHT22;7603;49.432;11.418;2022-12-07T10:32:00;3.00;99.90
15013;DHT22;7603;49.432;11.418;2022-12-07T10:34:30;3.00;99.90
15013;DHT22;7603;49.432;11.418;2022-12-07T10:39:50;3.00;99.90
15013;DHT22;7603;49.432;11.418;2022-12-07T10:44:42;3.10;99.90
15013;DHT22;7603;49.432;11.418;2022-12-07T10:47:33;3.10;99.90
15013;DHT22;7603;49.432;11.418;2022-12-07T11:04:47;3.20;99.90
15013;DHT22;7603;49.432;11.418;2022-12-07T11:09:58;3.30;99.90
15013;DHT22;7603;49.432;11.418;2022-12-07T11:25:44;3.30;99.90
15013;DHT22;7603;49.432;11.418;2022-12-07T11:31:25;3.30;99.90
15013;DHT22;7603;49.432;11.418;2022-12-07T11:34:08;3.30;99.90
15013;DHT22;7603;49.432;11.418;2022-12-07T11:36:41;3.40;99.90
15013;DHT22;7603;49.432;11.418;2022-12-07T11:39:33;3.40;99.90
15013;DHT22;7603;49.432;11.418;2022-12-07T11:42:06;3.40;99.90
15013;DHT22;7603;49.432;11.418;2022-12-07T11:50:41;3.50;99.90
15013;DHT22;7603;49.432;11.418;2022-12-07T11:53:17;3.50;99.90
15013;DHT22;7603;49.432;11.418;2022-12-07T11:55:52;3.50;99.90
15013;DHT22;7603;49.432;11.418;2022-12-07T11:58:29;3.60;99.90
15013;DHT22;7603;49.432;11.418;2022-12-07T12:01:40;3.70;99.90
15013;DHT22;7603;49.432;11.418;2022-12-07T12:09:17;3.70;99.90
15013;DHT22;7603;49.432;11.418;2022-12-07T12:12:16;3.70;99.90
15013;DHT22;7603;49.432;11.418;2022-12-07T12:23:27;3.60;99.90
15013;DHT22;7603;49.432;11.418;2022-12-07T12:26:01;3.60;99.90
15013;DHT22;7603;49.432;11.418;2022-12-07T12:33:35;3.60;99.90
15013;DHT22;7603;49.432;11.418;2022-12-07T12:38:50;3.60;99.90
15013;DHT22;7603;49.432;11.418;2022-12-07T12:46:55;3.60;99.90
15013;DHT22;7603;49.432;11.418;2022-12-07T12:51:50;3.60;99.90
15013;DHT22;7603;49.432;11.418;2022-12-07T12:54:31;3.70;99.90
15013;DHT22;7603;49.432;11.418;2022-12-07T12:57:28;3.70;99.90
15013;DHT22;7603;49.432;11.418;2022-12-07T13:03:16;3.80;99.90
15013;DHT22;7603;49.432;11.418;2022-12-07T13:05:27;3.70;99.90
15013;DHT22;7603;49.432;11.418;2022-12-07T13:08:20;3.70;99.90
15013;DHT22;7603;49.432;11.418;2022-12-07T13:10:47;3.70;99.90
15013;DHT22;7603;49.432;11.418;2022-12-07T13:15:48;3.70;99.90
15013;DHT22;7603;49.432;11.418;2022-12-07T13:26:43;3.60;99.90
15013;DHT22;7603;49.432;11.418;2022-12-07T13:29:11;3.60;99.90
15013;DHT22;7603;49.432;11.418;2022-12-07T13:31:44;3.60;99.90
15013;DHT22;7603;49.432;11.418;2022-12-07T13:34:33;3.60;99.90
15013;DHT22;7603;49.432;11.418;2022-12-07T13:37:10;3.60;99.90
15013;DHT22;7603;49.432;11.418;2022-12-07T13:39:46;3.60;99.90
15013;DHT22;7603;49.432;11.418;2022-12-07T13:44:53;3.60;99.90
15013;DHT22;7603;49.432;11.418;2022-12-07T13:47:36;3.60;99.90
15013;DHT22;7603;49.432;11.418;2022-12-07T13:52:48;3.60;99.90
15013;DHT22;7603;49.432;11.418;2022-12-07T13:55:16;3.50;99.90
15013;DHT22;7603;49.432;11.418;2022-12-07T13:57:44;3.60;99.90
15013;DHT22;7603;49.432;11.418;2022-12-07T14:00:21;3.70;99.90
15013;DHT22;7603;49.432;11.418;2022-12-07T14:02:59;3.60;99.90
15013;DHT22;7603;49.432;11.418;2022-12-07T14:05:31;3.60;99.90
15013;DHT22;7603;49.432;11.418;2022-12-07T14:08:02;3.60;99.90
15013;DHT22;7603;49.432;11.418;2022-12-07T14:13:00;3.60;99.90
15013;DHT22;7603;49.432;11.418;2022-12-07T14:15:31;3.50;99.90
15013;DHT22;7603;49.432;11.418;2022-12-07T14:17:59;3.70;99.90
15013;DHT22;7603;49.432;11.418;2022-12-07T14:22:58;3.50;99.90
15013;DHT22;7603;49.432;11.418;2022-12-07T14:25:26;3.60;99.90
15013;DHT22;7603;49.432;11.418;2022-12-07T14:30:21;3.50;99.90
15013;DHT22;7603;49.432;11.418;2022-12-07T14:32:52;3.50;99.90
15013;DHT22;7603;49.432;11.418;2022-12-07T14:35:19;3.50;99.90
15013;DHT22;7603;49.432;11.418;2022-12-07T14:37:46;3.50;99.90
15013;DHT22;7603;49.432;11.418;2022-12-07T14:40:15;3.40;99.90
15013;DHT22;7603;49.432;11.418;2022-12-07T14:42:42;3.40;99.90
15013;DHT22;7603;49.432;11.418;2022-12-07T14:45:15;3.40;99.90
15013;DHT22;7603;49.432;11.418;2022-12-07T14:47:41;3.40;99.90
15013;DHT22;7603;49.432;11.418;2022-12-07T14:50:10;3.40;99.90
15013;DHT22;7603;49.432;11.418;2022-12-07T14:52:36;3.40;99.90
15013;DHT22;7603;49.432;11.418;2022-12-07T14:55:02;3.40;99.90
15013;DHT22;7603;49.432;11.418;2022-12-07T14:57:28;3.40;99.90
15013;DHT22;7603;49.432;11.418;2022-12-07T14:59:54;3.50;99.90
15013;DHT22;7603;49.432;11.418;2022-12-07T15:02:19;3.40;99.90
15013;DHT22;7603;49.432;11.418;2022-12-07T15:04:45;3.40;99.90
15013;DHT22;7603;49.432;11.418;2022-12-07T15:07:21;3.40;99.90
15013;DHT22;7603;49.432;11.418;2022-12-07T15:09:48;3.40;99.90
15013;DHT22;7603;49.432;11.418;2022-12-07T15:12:14;3.40;99.90
15013;DHT22;7603;49.432;11.418;2022-12-07T15:14:40;3.40;99.90
15013;DHT22;7603;49.432;11.418;2022-12-07T15:17:06;3.40;99.90
15013;DHT22;7603;49.432;11.418;2022-12-07T15:19:31;3.40;99.90
15013;DHT22;7603;49.432;11.418;2022-12-07T15:21:58;3.40;99.90
15013;DHT22;7603;49.432;11.418;2022-12-07T15:24:25;3.40;99.90
15013;DHT22;7603;49.432;11.418;2022-12-07T15:26:51;3.40;99.90
15013;DHT22;7603;49.432;11.418;2022-12-07T15:29:17;3.40;99.90
15013;DHT22;7603;49.432;11.418;2022-12-07T15:31:43;3.30;99.90
15013;DHT22;7603;49.432;11.418;2022-12-07T15:34:09;3.40;99.90
15013;DHT22;7603;49.432;11.418;2022-12-07T15:36:35;3.40;99.90
15013;DHT22;7603;49.432;11.418;2022-12-07T15:39:00;3.20;99.90
15013;DHT22;7603;49.432;11.418;2022-12-07T15:41:27;3.30;99.90
15013;DHT22;7603;49.432;11.418;2022-12-07T15:43:52;3.20;99.90
15013;DHT22;7603;49.432;11.418;2022-12-07T15:46:39;3.10;99.90
15013;DHT22;7603;49.432;11.418;2022-12-07T15:49:23;3.10;99.90
15013;DHT22;7603;49.432;11.418;2022-12-07T15:51:48;3.00;99.90
15013;DHT22;7603;49.432;11.418;2022-12-07T15:56:45;2.80;99.90
15013;DHT22;7603;49.432;11.418;2022-12-07T15:59:11;2.70;99.90
15013;DHT22;7603;49.432;11.418;2022-12-07T16:01:37;2.60;99.90
15013;DHT22;7603;49.432;11.418;2022-12-07T16:04:02;2.70;99.90
15013;DHT22;7603;49.432;11.418;2022-12-07T16:06:28;2.60;99.90
15013;DHT22;7603;49.432;11.418;2022-12-07T16:08:54;2.50;99.90
15013;DHT22;7603;49.432;11.418;2022-12-07T16:11:20;2.60;99.90
15013;DHT22;7603;49.432;11.418;2022-12-07T16:13:46;2.60;99.90
15013;DHT22;7603;49.432;11.418;2022-12-07T16:16:14;2.50;99.90
15013;DHT22;7603;49.432;11.418;2022-12-07T16:18:41;2.60;99.90
15013;DHT22;7603;49.432;11.418;2022-12-07T16:21:07;2.60;99.90
15013;DHT22;7603;49.432;11.418;2022-12-07T16:23:33;2.60;99.90
15013;DHT22;7603;49.432;11.418;2022-12-07T16:26:07;2.60;99.90
15013;DHT22;7603;49.432;11.418;2022-12-07T16:28:33;2.60;99.90
15013;DHT22;7603;49.432;11.418;2022-12-07T16:31:06;2.60;99.90
15013;DHT22;7603;49.432;11.418;2022-12-07T16:33:34;2.70;99.90
15013;DHT22;7603;49.432;11.418;2022-12-07T16:36:01;2.60;99.90
15013;DHT22;7603;49.432;11.418;2022-12-07T16:38:26;2.60;99.90
15013;DHT22;7603;49.432;11.418;2022-12-07T16:40:53;2.70;99.90
15013;DHT22;7603;49.432;11.418;2022-12-07T16:43:18;2.70;99.90
15013;DHT22;7603;49.432;11.418;2022-12-07T16:45:46;2.70;99.90
15013;DHT22;7603;49.432;11.418;2022-12-07T16:48:14;2.70;99.90
15013;DHT22;7603;49.432;11.418;2022-12-07T16:50:41;2.80;99.90
15013;DHT22;7603;49.432;11.418;2022-12-07T16:53:08;2.80;99.90
15013;DHT22;7603;49.432;11.418;2022-12-07T16:55:37;2.80;99.90
15013;DHT22;7603;49.432;11.418;2022-12-07T16:58:03;2.80;99.90
15013;DHT22;7603;49.432;11.418;2022-12-07T17:00:29;2.80;99.90
15013;DHT22;7603;49.432;11.418;2022-12-07T17:02:54;2.80;99.90
15013;DHT22;7603;49.432;11.418;2022-12-07T17:05:20;2.80;99.90
15013;DHT22;7603;49.432;11.418;2022-12-07T17:07:46;2.80;99.90
15013;DHT22;7603;49.432;11.418;2022-12-07T17:10:11;2.80;99.90
15013;DHT22;7603;49.432;11.418;2022-12-07T17:12:37;2.90;99.90
15013;DHT22;7603;49.432;11.418;2022-12-07T17:15:03;2.90;99.90
15013;DHT22;7603;49.432;11.418;2022-12-07T17:17:58;2.90;99.90
15013;DHT22;7603;49.432;11.418;2022-12-07T17:20:26;2.90;99.90
15013;DHT22;7603;49.432;11.418;2022-12-07T17:22:52;2.90;99.90
15013;DHT22;7603;49.432;11.418;2022-12-07T17:25:19;2.90;99.90
15013;DHT22;7603;49.432;11.418;2022-12-07T17:27:45;2.90;99.90
15013;DHT22;7603;49.432;11.418;2022-12-07T17:30:12;2.90;99.90
15013;DHT22;7603;49.432;11.418;2022-12-07T17:32:38;2.90;99.90
15013;DHT22;7603;49.432;11.418;2022-12-07T17:35:05;2.90;99.90
15013;DHT22;7603;49.432;11.418;2022-12-07T17:37:31;2.90;99.90
15013;DHT22;7603;49.432;11.418;2022-12-07T17:39:57;2.80;99.90
15013;DHT22;7603;49.432;11.418;2022-12-07T17:42:26;2.80;99.90
15013;DHT22;7603;49.432;11.418;2022-12-07T17:45:04;2.70;99.90
15013;DHT22;7603;49.432;11.418;2022-12-07T17:47:30;2.70;99.90
15013;DHT22;7603;49.432;11.418;2022-12-07T17:49:55;2.60;99.90
15013;DHT22;7603;49.432;11.418;2022-12-07T17:52:21;2.60;99.90
15013;DHT22;7603;49.432;11.418;2022-12-07T17:55:06;2.60;99.90
15013;DHT22;7603;49.432;11.418;2022-12-07T17:57:32;2.60;99.90
15013;DHT22;7603;49.432;11.418;2022-12-07T17:59:57;2.60;99.90
15013;DHT22;7603;49.432;11.418;2022-12-07T18:02:23;2.60;99.90
15013;DHT22;7603;49.432;11.418;2022-12-07T18:04:49;2.60;99.90
15013;DHT22;7603;49.432;11.418;2022-12-07T18:07:14;2.70;99.90
15013;DHT22;7603;49.432;11.418;2022-12-07T18:09:40;2.70;99.90
15013;DHT22;7603;49.432;11.418;2022-12-07T18:12:07;2.70;99.90